createdAt,value
2023-01-13T00:03:24.216Z,6.20
2023-01-13T00:08:29.261Z,5.78
2023-01-13T00:13:35.285Z,4.55
2023-01-13T00:30:49.876Z,6.00
2023-01-13T00:35:57.705Z,6.35
2023-01-13T00:41:03.096Z,5.72
2023-01-13T00:46:10.386Z,5.37
2023-01-13T00:51:15.913Z,4.27
2023-01-13T00:56:38.451Z,5.72
2023-01-13T01:01:44.782Z,4.03
2023-01-13T01:06:48.631Z,5.95
2023-01-13T01:11:52.376Z,5.87
2023-01-13T01:16:57.438Z,4.97
2023-01-13T01:22:01.184Z,5.05
2023-01-13T01:27:05.023Z,5.07
2023-01-13T01:32:10.125Z,5.03
2023-01-13T01:37:14.225Z,6.28
2023-01-13T01:42:35.614Z,4.70
2023-01-13T01:47:42.014Z,5.40
2023-01-13T01:52:51.148Z,5.37
2023-01-13T01:57:59.709Z,6.87
2023-01-13T02:03:08.453Z,6.25
2023-01-13T02:08:15.087Z,6.20
2023-01-13T02:13:18.831Z,7.32
2023-01-13T02:18:39.176Z,7.18
2023-01-13T02:24:27.995Z,5.95
2023-01-13T02:30:09.605Z,6.18
2023-01-13T02:35:19.716Z,6.25
2023-01-13T02:40:27.378Z,5.43
2023-01-13T02:45:36.819Z,5.82
2023-01-13T02:50:45.536Z,5.40
2023-01-13T02:55:53.464Z,6.10
2023-01-13T03:00:58.843Z,5.75
2023-01-13T03:06:14.319Z,4.50
2023-01-13T03:11:20.799Z,4.30
2023-01-13T03:16:38.413Z,5.18
2023-01-13T03:21:49.674Z,4.40
2023-01-13T03:27:01.334Z,3.03
2023-01-13T03:32:11.727Z,2.92
2023-01-13T03:37:18.061Z,2.05
2023-01-13T03:42:24.820Z,1.60
2023-01-13T03:47:34.700Z,1.45
2023-01-13T03:52:43.117Z,1.75
2023-01-13T03:57:52.031Z,2.10
2023-01-13T04:03:02.520Z,1.80
2023-01-13T04:08:17.195Z,1.55
2023-01-13T04:13:24.208Z,1.67
2023-01-13T04:18:31.449Z,1.55
2023-01-13T04:23:35.436Z,1.02
2023-01-13T04:28:40.820Z,2.22
2023-01-13T04:33:45.912Z,1.85
2023-01-13T04:38:51.453Z,2.35
2023-01-13T04:43:55.194Z,3.30
2023-01-13T04:49:00.358Z,3.03
2023-01-13T04:54:04.229Z,2.90
2023-01-13T04:59:08.757Z,3.08
2023-01-13T05:04:15.584Z,2.20
2023-01-13T05:09:19.420Z,2.00
2023-01-13T05:14:40.721Z,2.67
2023-01-13T05:19:45.952Z,3.28
2023-01-13T05:25:07.210Z,3.30
2023-01-13T05:30:12.107Z,4.18
2023-01-13T05:35:17.649Z,3.85
2023-01-13T05:40:39.052Z,3.20
2023-01-13T05:45:42.980Z,3.03
2023-01-13T05:50:49.257Z,3.80
2023-01-13T05:55:53.558Z,4.05
2023-01-13T06:01:01.228Z,3.33
2023-01-13T06:06:08.916Z,2.95
2023-01-13T06:11:12.895Z,3.10
2023-01-13T08:20:01.602Z,3.65
2023-01-13T08:25:06.406Z,4.68
2023-01-13T08:30:11.422Z,4.12
2023-01-13T08:35:17.463Z,6.07
2023-01-13T08:40:22.347Z,4.82
2023-01-13T08:45:26.187Z,4.70
2023-01-13T08:50:31.387Z,4.95
2023-01-13T08:55:35.197Z,4.65
2023-01-13T09:00:38.975Z,7.28
2023-01-13T09:05:44.107Z,5.95
2023-01-13T09:10:47.929Z,4.47
2023-01-13T09:15:52.310Z,4.47
2023-01-13T09:20:59.801Z,4.15
2023-01-13T09:26:03.567Z,3.53
2023-01-13T09:31:07.459Z,5.32
2023-01-13T09:36:12.781Z,5.37
2023-01-13T09:41:34.957Z,4.30
2023-01-13T09:46:48.057Z,5.15
2023-01-13T09:51:59.308Z,5.25
2023-01-13T09:57:03.187Z,6.53
2023-01-13T10:02:32.330Z,5.87
2023-01-13T10:07:41.073Z,6.12
2023-01-13T10:13:05.882Z,6.15
2023-01-13T10:18:19.491Z,5.28
2023-01-13T10:23:50.519Z,4.40
2023-01-13T10:28:55.161Z,4.05
2023-01-13T10:34:00.613Z,4.80
2023-01-13T10:39:11.109Z,4.18
2023-01-13T10:44:17.615Z,4.18
2023-01-13T10:49:29.368Z,5.37
2023-01-13T10:54:35.992Z,5.62
2023-01-13T10:59:39.821Z,4.80
2023-01-13T11:04:46.225Z,5.25
2023-01-13T11:10:15.513Z,6.45
2023-01-13T11:15:23.181Z,5.75
2023-01-13T11:20:32.514Z,4.80
2023-01-13T11:25:43.065Z,4.22
2023-01-13T11:30:56.538Z,5.57
2023-01-13T11:36:07.582Z,4.15
2023-01-13T11:41:21.735Z,4.75
2023-01-13T11:46:28.283Z,4.95
2023-01-13T11:51:39.451Z,3.92
2023-01-13T11:57:09.309Z,4.70
2023-01-13T12:02:26.365Z,3.33
2023-01-13T12:07:40.315Z,4.28
2023-01-13T12:12:55.055Z,4.15
2023-01-13T12:18:15.184Z,3.92
2023-01-13T12:23:26.043Z,5.03
2023-01-13T12:28:44.049Z,4.62
2023-01-13T12:34:08.703Z,4.43
2023-01-13T12:39:25.044Z,4.60
2023-01-13T12:44:30.353Z,5.10
2023-01-13T12:49:36.305Z,4.30
2023-01-13T12:55:03.939Z,3.97
2023-01-13T13:00:17.160Z,3.53
2023-01-13T13:06:00.429Z,3.17
2023-01-13T13:11:40.257Z,4.12
2023-01-13T13:16:54.757Z,4.37
2023-01-13T13:22:37.546Z,4.10
2023-01-13T13:27:45.174Z,3.58
2023-01-13T13:33:03.783Z,4.07
2023-01-13T13:38:43.488Z,3.55
2023-01-13T13:44:04.741Z,3.22
2023-01-13T13:49:09.966Z,4.05
2023-01-13T13:54:17.608Z,3.40
2023-01-13T13:59:25.150Z,4.68
2023-01-13T14:04:32.286Z,5.47
2023-01-13T14:09:47.015Z,4.10
2023-01-13T14:14:51.751Z,3.45
2023-01-13T14:20:01.634Z,5.45
2023-01-13T14:25:27.931Z,3.92
2023-01-13T14:30:33.754Z,4.93
2023-01-13T14:35:38.873Z,3.22
2023-01-13T14:40:46.909Z,4.62
2023-01-13T14:45:59.311Z,4.20
2023-01-13T14:51:09.490Z,3.72
2023-01-13T14:56:51.377Z,4.57
2023-01-13T15:01:55.589Z,4.03
2023-01-13T15:07:02.303Z,4.93
2023-01-13T15:12:18.179Z,5.30
2023-01-13T15:17:21.915Z,4.25
2023-01-13T15:22:28.206Z,4.62
2023-01-13T15:27:32.445Z,4.65
2023-01-13T15:32:36.235Z,5.35
2023-01-13T15:37:41.846Z,3.53
2023-01-13T15:43:03.688Z,4.62
2023-01-13T15:48:07.493Z,6.30
2023-01-13T15:53:14.965Z,4.28
2023-01-13T15:58:21.588Z,4.53
2023-01-13T16:03:25.356Z,4.72
2023-01-13T16:08:34.199Z,4.47
2023-01-13T16:13:40.123Z,4.57
2023-01-13T16:18:43.836Z,4.82
2023-01-13T16:23:50.803Z,4.20
2023-01-13T16:28:56.463Z,4.32
2023-01-13T16:34:01.347Z,4.57
2023-01-13T16:39:20.285Z,3.90
2023-01-13T16:44:24.313Z,3.37
2023-01-13T16:49:28.143Z,4.43
2023-01-13T16:54:33.311Z,4.03
2023-01-13T16:59:37.092Z,3.28
2023-01-13T17:04:40.805Z,4.15
2023-01-13T17:09:45.912Z,3.72
2023-01-13T17:14:49.643Z,4.70
2023-01-13T17:19:54.528Z,4.80
2023-01-13T17:24:59.637Z,4.32
2023-01-13T17:30:03.446Z,4.05
2023-01-13T17:35:08.087Z,4.12
2023-01-13T17:40:14.232Z,4.45
2023-01-13T17:45:18.065Z,3.62
2023-01-13T17:50:21.826Z,4.47
2023-01-13T17:55:26.942Z,4.78
2023-01-13T18:00:30.658Z,3.60
2023-01-13T18:05:35.061Z,4.60
2023-01-13T18:10:40.135Z,10.52
2023-01-13T18:15:43.906Z,4.87
2023-01-13T18:21:05.303Z,4.72
2023-01-13T18:26:35.637Z,3.22
2023-01-13T18:31:39.364Z,4.57
2023-01-13T18:36:43.122Z,6.93
2023-01-13T18:42:05.871Z,5.78
2023-01-13T18:47:09.991Z,5.43
2023-01-13T18:52:13.933Z,5.18
2023-01-13T18:57:21.356Z,5.95
2023-01-13T19:02:26.402Z,3.83
2023-01-13T19:07:31.787Z,5.32
2023-01-13T19:12:36.907Z,5.18
2023-01-13T19:17:40.695Z,4.22
2023-01-13T19:22:46.178Z,3.58
2023-01-13T19:27:51.299Z,3.67
2023-01-13T19:32:55.060Z,5.43
2023-01-13T19:37:58.789Z,4.32
2023-01-13T19:43:21.498Z,4.47
2023-01-13T19:48:26.163Z,4.05
2023-01-13T19:53:30.919Z,4.82
2023-01-13T19:58:36.041Z,4.82
2023-01-13T20:03:39.825Z,4.37
2023-01-13T20:08:46.067Z,4.90
2023-01-13T20:13:52.141Z,4.18
2023-01-13T20:18:56.323Z,5.28
2023-01-13T20:24:00.107Z,4.60
2023-01-13T20:29:05.182Z,5.00
2023-01-13T20:34:09.603Z,4.35
2023-01-13T20:39:16.200Z,4.47
2023-01-13T20:44:21.306Z,4.60
2023-01-13T20:49:26.458Z,3.58
2023-01-13T20:54:30.297Z,6.25
2023-01-13T20:59:35.410Z,4.37
2023-01-13T21:04:39.136Z,5.43
2023-01-13T21:09:42.929Z,5.15
2023-01-13T21:15:05.596Z,4.50
2023-01-13T21:20:12.018Z,4.30
2023-01-13T21:25:16.598Z,4.00
2023-01-13T21:30:22.728Z,4.80
2023-01-13T21:35:26.495Z,4.22
2023-01-13T21:40:30.221Z,4.15
2023-01-13T21:45:52.945Z,4.68
2023-01-13T21:51:00.992Z,3.58
2023-01-13T21:56:05.122Z,4.75
2023-01-13T22:01:11.972Z,3.40
2023-01-13T22:06:15.964Z,3.67
2023-01-13T22:11:19.757Z,4.60
2023-01-13T22:16:25.060Z,3.72
2023-01-13T22:21:28.879Z,4.32
2023-01-13T22:26:32.708Z,5.90
2023-01-13T22:31:39.214Z,4.65
2023-01-13T22:36:43.006Z,6.20
2023-01-13T22:41:46.706Z,4.93
2023-01-13T22:46:51.911Z,4.35
2023-01-13T22:51:55.653Z,4.15
2023-01-13T22:56:59.530Z,5.03
2023-01-13T23:02:04.649Z,3.72
2023-01-13T23:07:08.341Z,4.60
2023-01-13T23:12:12.111Z,4.53
2023-01-13T23:17:17.209Z,3.62
2023-01-13T23:22:20.992Z,4.37
2023-01-13T23:27:24.767Z,4.20
2023-01-13T23:32:29.932Z,3.67
2023-01-13T23:37:34.270Z,5.53
2023-01-13T23:42:37.988Z,5.35
2023-01-13T23:47:43.339Z,3.90
2023-01-13T23:52:47.120Z,4.60
2023-01-13T23:57:51.065Z,5.00
